sensor_id;sensor_type;location;lat;lon;timestamp;P1;durP1;ratioP1;P2;durP2;ratioP2
6426;SDS011;3246;42.664;23.308;2023-12-07T00:01:23;22.73;;;15.77;;
6426;SDS011;3246;42.664;23.308;2023-12-07T00:03:50;22.77;;;15.27;;
6426;SDS011;3246;42.664;23.308;2023-12-07T00:06:17;19.30;;;15.23;;
6426;SDS011;3246;42.664;23.308;2023-12-07T00:08:43;19.93;;;15.13;;
6426;SDS011;3246;42.664;23.308;2023-12-07T00:11:11;20.77;;;14.77;;
6426;SDS011;3246;42.664;23.308;2023-12-07T00:13:38;19.67;;;16.13;;
6426;SDS011;3246;42.664;23.308;2023-12-07T00:16:05;27.30;;;17.57;;
6426;SDS011;3246;42.664;23.308;2023-12-07T00:18:32;26.50;;;15.93;;
6426;SDS011;3246;42.664;23.308;2023-12-07T00:20:59;23.43;;;16.50;;
6426;SDS011;3246;42.664;23.308;2023-12-07T00:23:25;21.37;;;17.87;;
6426;SDS011;3246;42.664;23.308;2023-12-07T00:25:52;29.30;;;18.07;;
6426;SDS011;3246;42.664;23.308;2023-12-07T00:28:20;24.63;;;17.30;;
6426;SDS011;3246;42.664;23.308;2023-12-07T00:30:47;25.93;;;16.87;;
6426;SDS011;3246;42.664;23.308;2023-12-07T00:33:14;25.27;;;17.83;;
6426;SDS011;3246;42.664;23.308;2023-12-07T00:35:42;25.33;;;17.93;;
6426;SDS011;3246;42.664;23.308;2023-12-07T00:38:08;26.00;;;19.17;;
6426;SDS011;3246;42.664;23.308;2023-12-07T00:40:35;28.63;;;19.80;;
6426;SDS011;3246;42.664;23.308;2023-12-07T00:43:05;28.87;;;18.97;;
6426;SDS011;3246;42.664;23.308;2023-12-07T00:45:33;24.77;;;17.83;;
6426;SDS011;3246;42.664;23.308;2023-12-07T00:48:00;25.13;;;17.53;;
6426;SDS011;3246;42.664;23.308;2023-12-07T00:50:27;29.47;;;20.80;;
6426;SDS011;3246;42.664;23.308;2023-12-07T00:52:53;27.53;;;18.30;;
6426;SDS011;3246;42.664;23.308;2023-12-07T00:55:20;30.57;;;17.73;;
6426;SDS011;3246;42.664;23.308;2023-12-07T00:57:47;27.77;;;18.57;;
6426;SDS011;3246;42.664;23.308;2023-12-07T01:00:14;29.30;;;17.13;;
6426;SDS011;3246;42.664;23.308;2023-12-07T01:02:42;25.23;;;17.80;;
6426;SDS011;3246;42.664;23.308;2023-12-07T01:05:09;27.37;;;17.83;;
6426;SDS011;3246;42.664;23.308;2023-12-07T01:07:36;25.27;;;15.60;;
6426;SDS011;3246;42.664;23.308;2023-12-07T01:10:03;22.67;;;16.73;;
6426;SDS011;3246;42.664;23.308;2023-12-07T01:12:31;24.57;;;16.70;;
6426;SDS011;3246;42.664;23.308;2023-12-07T01:14:57;25.43;;;16.60;;
6426;SDS011;3246;42.664;23.308;2023-12-07T01:17:24;26.13;;;17.40;;
6426;SDS011;3246;42.664;23.308;2023-12-07T01:19:52;23.80;;;16.13;;
6426;SDS011;3246;42.664;23.308;2023-12-07T01:22:19;23.70;;;16.77;;
6426;SDS011;3246;42.664;23.308;2023-12-07T01:24:46;28.03;;;18.50;;
6426;SDS011;3246;42.664;23.308;2023-12-07T01:27:13;27.10;;;19.83;;
6426;SDS011;3246;42.664;23.308;2023-12-07T01:29:40;31.43;;;20.00;;
6426;SDS011;3246;42.664;23.308;2023-12-07T01:32:06;29.13;;;18.80;;
6426;SDS011;3246;42.664;23.308;2023-12-07T01:34:33;32.03;;;19.43;;
6426;SDS011;3246;42.664;23.308;2023-12-07T01:37:02;28.87;;;18.77;;
6426;SDS011;3246;42.664;23.308;2023-12-07T01:39:29;29.97;;;19.10;;
6426;SDS011;3246;42.664;23.308;2023-12-07T01:41:55;31.37;;;20.40;;
6426;SDS011;3246;42.664;23.308;2023-12-07T01:44:22;30.30;;;20.70;;
6426;SDS011;3246;42.664;23.308;2023-12-07T01:46:49;27.83;;;18.97;;
6426;SDS011;3246;42.664;23.308;2023-12-07T01:49:16;31.63;;;19.47;;
6426;SDS011;3246;42.664;23.308;2023-12-07T01:51:43;27.53;;;19.07;;
6426;SDS011;3246;42.664;23.308;2023-12-07T01:54:11;31.83;;;18.07;;
6426;SDS011;3246;42.664;23.308;2023-12-07T01:56:38;29.47;;;18.50;;
6426;SDS011;3246;42.664;23.308;2023-12-07T01:59:05;34.80;;;18.97;;
6426;SDS011;3246;42.664;23.308;2023-12-07T02:01:32;28.57;;;17.53;;
6426;SDS011;3246;42.664;23.308;2023-12-07T02:03:59;26.70;;;16.97;;
6426;SDS011;3246;42.664;23.308;2023-12-07T02:06:26;30.13;;;17.30;;
6426;SDS011;3246;42.664;23.308;2023-12-07T02:08:53;27.87;;;17.90;;
6426;SDS011;3246;42.664;23.308;2023-12-07T02:11:22;28.00;;;19.17;;
6426;SDS011;3246;42.664;23.308;2023-12-07T02:13:49;25.60;;;18.00;;
6426;SDS011;3246;42.664;23.308;2023-12-07T02:16:21;26.23;;;18.80;;
6426;SDS011;3246;42.664;23.308;2023-12-07T02:18:55;31.37;;;20.43;;
6426;SDS011;3246;42.664;23.308;2023-12-07T02:21:30;33.37;;;20.43;;
6426;SDS011;3246;42.664;23.308;2023-12-07T02:24:00;33.07;;;19.93;;
6426;SDS011;3246;42.664;23.308;2023-12-07T02:29:19;36.07;;;20.63;;
6426;SDS011;3246;42.664;23.308;2023-12-07T02:31:46;30.83;;;18.17;;
6426;SDS011;3246;42.664;23.308;2023-12-07T02:34:13;28.60;;;18.97;;
6426;SDS011;3246;42.664;23.308;2023-12-07T02:36:40;30.87;;;19.33;;
6426;SDS011;3246;42.664;23.308;2023-12-07T02:39:10;30.00;;;20.37;;
6426;SDS011;3246;42.664;23.308;2023-12-07T02:41:39;32.53;;;20.60;;
6426;SDS011;3246;42.664;23.308;2023-12-07T02:44:08;35.13;;;21.07;;
6426;SDS011;3246;42.664;23.308;2023-12-07T02:46:37;30.50;;;19.40;;
6426;SDS011;3246;42.664;23.308;2023-12-07T02:49:03;30.77;;;20.53;;
6426;SDS011;3246;42.664;23.308;2023-12-07T02:51:30;31.27;;;19.97;;
6426;SDS011;3246;42.664;23.308;2023-12-07T02:53:57;31.00;;;19.13;;
6426;SDS011;3246;42.664;23.308;2023-12-07T02:56:24;35.03;;;21.37;;
6426;SDS011;3246;42.664;23.308;2023-12-07T02:58:50;29.17;;;19.73;;
6426;SDS011;3246;42.664;23.308;2023-12-07T03:01:19;30.50;;;20.20;;
6426;SDS011;3246;42.664;23.308;2023-12-07T03:03:45;30.83;;;20.90;;
6426;SDS011;3246;42.664;23.308;2023-12-07T03:06:12;33.27;;;19.60;;
6426;SDS011;3246;42.664;23.308;2023-12-07T03:08:40;34.67;;;21.87;;
6426;SDS011;3246;42.664;23.308;2023-12-07T03:11:07;27.83;;;19.03;;
6426;SDS011;3246;42.664;23.308;2023-12-07T03:13:34;28.23;;;17.37;;
6426;SDS011;3246;42.664;23.308;2023-12-07T03:16:00;24.73;;;15.73;;
6426;SDS011;3246;42.664;23.308;2023-12-07T03:18:28;26.60;;;16.47;;
6426;SDS011;3246;42.664;23.308;2023-12-07T03:20:54;21.27;;;14.93;;
6426;SDS011;3246;42.664;23.308;2023-12-07T03:23:21;22.87;;;16.07;;
6426;SDS011;3246;42.664;23.308;2023-12-07T03:25:47;24.03;;;14.67;;
6426;SDS011;3246;42.664;23.308;2023-12-07T03:28:13;24.73;;;16.33;;
6426;SDS011;3246;42.664;23.308;2023-12-07T03:30:40;20.37;;;15.30;;
6426;SDS011;3246;42.664;23.308;2023-12-07T03:33:07;25.77;;;15.23;;
6426;SDS011;3246;42.664;23.308;2023-12-07T03:35:35;26.83;;;14.50;;
6426;SDS011;3246;42.664;23.308;2023-12-07T03:38:02;20.20;;;14.23;;
6426;SDS011;3246;42.664;23.308;2023-12-07T03:40:29;18.33;;;13.67;;
6426;SDS011;3246;42.664;23.308;2023-12-07T03:42:55;19.13;;;14.03;;
6426;SDS011;3246;42.664;23.308;2023-12-07T03:45:22;21.27;;;14.93;;
6426;SDS011;3246;42.664;23.308;2023-12-07T03:47:49;19.57;;;14.17;;
6426;SDS011;3246;42.664;23.308;2023-12-07T03:50:16;19.83;;;14.63;;
6426;SDS011;3246;42.664;23.308;2023-12-07T03:52:44;18.53;;;12.57;;
6426;SDS011;3246;42.664;23.308;2023-12-07T03:55:11;19.20;;;13.23;;
6426;SDS011;3246;42.664;23.308;2023-12-07T03:57:38;20.53;;;14.13;;
6426;SDS011;3246;42.664;23.308;2023-12-07T04:00:06;20.90;;;13.80;;
6426;SDS011;3246;42.664;23.308;2023-12-07T04:02:34;21.63;;;13.90;;
6426;SDS011;3246;42.664;23.308;2023-12-07T04:05:00;16.13;;;12.60;;
6426;SDS011;3246;42.664;23.308;2023-12-07T04:07:27;17.80;;;12.53;;
6426;SDS011;3246;42.664;23.308;2023-12-07T04:09:56;18.83;;;12.70;;
6426;SDS011;3246;42.664;23.308;2023-12-07T04:12:23;15.03;;;11.63;;
6426;SDS011;3246;42.664;23.308;2023-12-07T04:14:50;17.50;;;13.43;;
6426;SDS011;3246;42.664;23.308;2023-12-07T04:17:17;17.33;;;12.67;;
6426;SDS011;3246;42.664;23.308;2023-12-07T04:19:44;17.67;;;13.63;;
6426;SDS011;3246;42.664;23.308;2023-12-07T04:22:10;21.10;;;12.80;;
6426;SDS011;3246;42.664;23.308;2023-12-07T04:24:37;22.50;;;13.50;;
6426;SDS011;3246;42.664;23.308;2023-12-07T04:27:05;17.07;;;12.87;;
6426;SDS011;3246;42.664;23.308;2023-12-07T04:29:32;23.13;;;13.60;;
6426;SDS011;3246;42.664;23.308;2023-12-07T04:31:59;18.27;;;12.80;;
6426;SDS011;3246;42.664;23.308;2023-12-07T04:34:27;18.43;;;12.63;;
6426;SDS011;3246;42.664;23.308;2023-12-07T04:36:54;19.47;;;13.67;;
6426;SDS011;3246;42.664;23.308;2023-12-07T04:39:21;24.37;;;16.27;;
6426;SDS011;3246;42.664;23.308;2023-12-07T04:41:48;25.20;;;16.00;;
6426;SDS011;3246;42.664;23.308;2023-12-07T04:44:16;20.93;;;14.87;;
6426;SDS011;3246;42.664;23.308;2023-12-07T04:46:44;22.47;;;15.10;;
6426;SDS011;3246;42.664;23.308;2023-12-07T04:49:11;19.00;;;13.60;;
6426;SDS011;3246;42.664;23.308;2023-12-07T04:51:38;21.37;;;14.60;;
6426;SDS011;3246;42.664;23.308;2023-12-07T04:54:06;21.33;;;13.73;;
6426;SDS011;3246;42.664;23.308;2023-12-07T04:56:32;18.40;;;12.67;;
6426;SDS011;3246;42.664;23.308;2023-12-07T04:58:59;18.60;;;13.60;;
6426;SDS011;3246;42.664;23.308;2023-12-07T05:01:27;18.97;;;12.97;;
6426;SDS011;3246;42.664;23.308;2023-12-07T05:03:54;24.10;;;14.73;;
6426;SDS011;3246;42.664;23.308;2023-12-07T05:06:21;22.63;;;17.27;;
6426;SDS011;3246;42.664;23.308;2023-12-07T05:08:47;26.03;;;16.43;;
6426;SDS011;3246;42.664;23.308;2023-12-07T05:11:14;28.13;;;19.97;;
6426;SDS011;3246;42.664;23.308;2023-12-07T05:13:41;25.07;;;18.33;;
6426;SDS011;3246;42.664;23.308;2023-12-07T05:16:09;23.03;;;17.33;;
6426;SDS011;3246;42.664;23.308;2023-12-07T05:18:38;23.93;;;17.40;;
6426;SDS011;3246;42.664;23.308;2023-12-07T05:21:04;23.37;;;16.97;;
6426;SDS011;3246;42.664;23.308;2023-12-07T05:23:31;22.87;;;15.57;;
6426;SDS011;3246;42.664;23.308;2023-12-07T05:25:58;26.23;;;17.27;;
6426;SDS011;3246;42.664;23.308;2023-12-07T05:28:25;26.73;;;17.47;;
6426;SDS011;3246;42.664;23.308;2023-12-07T05:30:53;24.57;;;17.77;;
6426;SDS011;3246;42.664;23.308;2023-12-07T05:33:22;23.70;;;16.27;;
6426;SDS011;3246;42.664;23.308;2023-12-07T05:35:51;24.63;;;16.13;;
6426;SDS011;3246;42.664;23.308;2023-12-07T05:38:18;24.03;;;16.47;;
6426;SDS011;3246;42.664;23.308;2023-12-07T05:40:45;20.53;;;16.13;;
6426;SDS011;3246;42.664;23.308;2023-12-07T05:43:11;22.93;;;15.87;;
6426;SDS011;3246;42.664;23.308;2023-12-07T05:45:38;20.53;;;15.60;;
6426;SDS011;3246;42.664;23.308;2023-12-07T05:48:06;19.73;;;14.47;;
6426;SDS011;3246;42.664;23.308;2023-12-07T05:50:32;19.10;;;14.17;;
6426;SDS011;3246;42.664;23.308;2023-12-07T05:53:00;21.33;;;16.10;;
6426;SDS011;3246;42.664;23.308;2023-12-07T05:55:27;21.47;;;14.83;;
6426;SDS011;3246;42.664;23.308;2023-12-07T05:57:54;23.30;;;15.97;;
6426;SDS011;3246;42.664;23.308;2023-12-07T06:00:21;21.33;;;13.60;;
6426;SDS011;3246;42.664;23.308;2023-12-07T06:02:48;24.57;;;15.43;;
6426;SDS011;3246;42.664;23.308;2023-12-07T06:05:14;17.90;;;12.67;;
6426;SDS011;3246;42.664;23.308;2023-12-07T06:07:41;17.63;;;12.53;;
6426;SDS011;3246;42.664;23.308;2023-12-07T06:10:10;21.00;;;14.00;;
6426;SDS011;3246;42.664;23.308;2023-12-07T06:12:36;22.50;;;14.13;;
6426;SDS011;3246;42.664;23.308;2023-12-07T06:15:04;23.47;;;13.03;;
6426;SDS011;3246;42.664;23.308;2023-12-07T06:17:32;19.63;;;14.07;;
6426;SDS011;3246;42.664;23.308;2023-12-07T06:20:00;23.53;;;15.43;;
6426;SDS011;3246;42.664;23.308;2023-12-07T06:22:28;19.23;;;14.67;;
6426;SDS011;3246;42.664;23.308;2023-12-07T06:24:55;25.73;;;16.03;;
6426;SDS011;3246;42.664;23.308;2023-12-07T06:27:24;33.20;;;22.30;;
6426;SDS011;3246;42.664;23.308;2023-12-07T06:29:50;33.93;;;22.80;;
6426;SDS011;3246;42.664;23.308;2023-12-07T06:32:17;29.40;;;20.40;;
6426;SDS011;3246;42.664;23.308;2023-12-07T06:34:44;25.07;;;18.33;;
6426;SDS011;3246;42.664;23.308;2023-12-07T06:37:11;30.27;;;18.70;;
6426;SDS011;3246;42.664;23.308;2023-12-07T06:39:37;25.83;;;17.77;;
6426;SDS011;3246;42.664;23.308;2023-12-07T06:42:05;25.83;;;19.03;;
6426;SDS011;3246;42.664;23.308;2023-12-07T06:44:34;21.83;;;15.17;;
6426;SDS011;3246;42.664;23.308;2023-12-07T06:47:01;24.30;;;17.93;;
6426;SDS011;3246;42.664;23.308;2023-12-07T06:49:29;36.13;;;22.33;;
6426;SDS011;3246;42.664;23.308;2023-12-07T06:51:56;34.60;;;21.10;;
6426;SDS011;3246;42.664;23.308;2023-12-07T06:54:23;37.20;;;22.27;;
6426;SDS011;3246;42.664;23.308;2023-12-07T06:56:50;40.27;;;23.87;;
6426;SDS011;3246;42.664;23.308;2023-12-07T06:59:17;30.73;;;20.70;;
6426;SDS011;3246;42.664;23.308;2023-12-07T07:01:45;27.63;;;18.43;;
6426;SDS011;3246;42.664;23.308;2023-12-07T07:04:12;28.53;;;16.83;;
6426;SDS011;3246;42.664;23.308;2023-12-07T07:06:39;24.40;;;16.87;;
6426;SDS011;3246;42.664;23.308;2023-12-07T07:09:06;15.33;;;12.47;;
6426;SDS011;3246;42.664;23.308;2023-12-07T07:11:33;23.50;;;17.10;;
6426;SDS011;3246;42.664;23.308;2023-12-07T07:14:00;17.57;;;13.60;;
6426;SDS011;3246;42.664;23.308;2023-12-07T07:16:27;17.87;;;12.67;;
6426;SDS011;3246;42.664;23.308;2023-12-07T07:18:55;18.93;;;13.80;;
6426;SDS011;3246;42.664;23.308;2023-12-07T07:21:22;17.43;;;12.57;;
6426;SDS011;3246;42.664;23.308;2023-12-07T07:23:49;15.33;;;12.67;;
6426;SDS011;3246;42.664;23.308;2023-12-07T07:26:16;19.27;;;13.03;;
6426;SDS011;3246;42.664;23.308;2023-12-07T07:28:42;19.87;;;12.50;;
6426;SDS011;3246;42.664;23.308;2023-12-07T07:31:09;16.07;;;11.30;;
6426;SDS011;3246;42.664;23.308;2023-12-07T07:33:36;15.40;;;10.70;;
6426;SDS011;3246;42.664;23.308;2023-12-07T07:36:05;13.50;;;9.63;;
6426;SDS011;3246;42.664;23.308;2023-12-07T07:38:32;17.37;;;10.70;;
6426;SDS011;3246;42.664;23.308;2023-12-07T07:40:58;14.87;;;11.30;;
6426;SDS011;3246;42.664;23.308;2023-12-07T07:43:25;10.80;;;8.97;;
6426;SDS011;3246;42.664;23.308;2023-12-07T07:45:52;10.50;;;8.77;;
6426;SDS011;3246;42.664;23.308;2023-12-07T07:48:19;11.37;;;7.17;;
6426;SDS011;3246;42.664;23.308;2023-12-07T07:50:46;8.70;;;7.80;;
6426;SDS011;3246;42.664;23.308;2023-12-07T07:53:14;10.97;;;6.73;;
6426;SDS011;3246;42.664;23.308;2023-12-07T07:55:41;8.97;;;8.07;;
6426;SDS011;3246;42.664;23.308;2023-12-07T07:58:08;12.27;;;7.17;;
6426;SDS011;3246;42.664;23.308;2023-12-07T08:00:35;7.80;;;6.73;;
6426;SDS011;3246;42.664;23.308;2023-12-07T08:03:02;11.57;;;8.27;;
6426;SDS011;3246;42.664;23.308;2023-12-07T08:05:29;8.43;;;6.13;;
6426;SDS011;3246;42.664;23.308;2023-12-07T08:07:55;10.10;;;6.50;;
6426;SDS011;3246;42.664;23.308;2023-12-07T08:10:24;9.60;;;8.20;;
6426;SDS011;3246;42.664;23.308;2023-12-07T08:12:50;10.27;;;8.50;;
6426;SDS011;3246;42.664;23.308;2023-12-07T08:15:17;10.53;;;9.37;;
6426;SDS011;3246;42.664;23.308;2023-12-07T08:17:45;12.30;;;11.03;;
6426;SDS011;3246;42.664;23.308;2023-12-07T08:20:12;9.13;;;7.97;;
6426;SDS011;3246;42.664;23.308;2023-12-07T08:22:40;10.47;;;8.73;;
6426;SDS011;3246;42.664;23.308;2023-12-07T08:25:07;7.63;;;6.53;;
6426;SDS011;3246;42.664;23.308;2023-12-07T08:27:36;6.73;;;6.00;;
6426;SDS011;3246;42.664;23.308;2023-12-07T08:30:04;6.93;;;5.73;;
6426;SDS011;3246;42.664;23.308;2023-12-07T08:32:34;5.33;;;4.83;;
6426;SDS011;3246;42.664;23.308;2023-12-07T08:35:01;6.50;;;4.70;;
6426;SDS011;3246;42.664;23.308;2023-12-07T08:37:28;4.73;;;4.27;;
6426;SDS011;3246;42.664;23.308;2023-12-07T08:39:54;4.60;;;4.20;;
6426;SDS011;3246;42.664;23.308;2023-12-07T08:42:21;4.63;;;4.17;;
6426;SDS011;3246;42.664;23.308;2023-12-07T08:44:49;5.50;;;5.00;;
6426;SDS011;3246;42.664;23.308;2023-12-07T08:47:16;5.87;;;4.73;;
6426;SDS011;3246;42.664;23.308;2023-12-07T08:49:43;5.80;;;3.60;;
6426;SDS011;3246;42.664;23.308;2023-12-07T08:52:10;4.33;;;3.70;;
6426;SDS011;3246;42.664;23.308;2023-12-07T08:54:36;3.87;;;3.57;;
6426;SDS011;3246;42.664;23.308;2023-12-07T08:57:03;4.07;;;3.73;;
6426;SDS011;3246;42.664;23.308;2023-12-07T08:59:30;4.73;;;4.33;;
6426;SDS011;3246;42.664;23.308;2023-12-07T09:01:58;4.03;;;3.70;;
6426;SDS011;3246;42.664;23.308;2023-12-07T09:04:25;4.07;;;3.67;;
6426;SDS011;3246;42.664;23.308;2023-12-07T09:06:53;3.90;;;3.60;;
6426;SDS011;3246;42.664;23.308;2023-12-07T09:09:19;7.10;;;4.30;;
6426;SDS011;3246;42.664;23.308;2023-12-07T09:11:47;4.77;;;4.33;;
6426;SDS011;3246;42.664;23.308;2023-12-07T09:14:14;5.07;;;4.67;;
6426;SDS011;3246;42.664;23.308;2023-12-07T09:16:44;5.43;;;4.97;;
6426;SDS011;3246;42.664;23.308;2023-12-07T09:19:12;5.90;;;4.83;;
6426;SDS011;3246;42.664;23.308;2023-12-07T09:21:39;4.60;;;4.20;;
6426;SDS011;3246;42.664;23.308;2023-12-07T09:24:07;5.90;;;3.57;;
6426;SDS011;3246;42.664;23.308;2023-12-07T09:26:33;3.93;;;3.33;;
6426;SDS011;3246;42.664;23.308;2023-12-07T09:29:01;4.70;;;3.73;;
6426;SDS011;3246;42.664;23.308;2023-12-07T09:31:28;4.40;;;4.00;;
6426;SDS011;3246;42.664;23.308;2023-12-07T09:33:54;4.00;;;3.70;;
6426;SDS011;3246;42.664;23.308;2023-12-07T09:36:22;3.47;;;3.17;;
6426;SDS011;3246;42.664;23.308;2023-12-07T09:38:52;6.40;;;5.90;;
6426;SDS011;3246;42.664;23.308;2023-12-07T09:41:19;4.07;;;3.70;;
6426;SDS011;3246;42.664;23.308;2023-12-07T09:43:46;3.77;;;3.47;;
6426;SDS011;3246;42.664;23.308;2023-12-07T09:46:13;4.17;;;3.67;;
6426;SDS011;3246;42.664;23.308;2023-12-07T09:48:41;3.73;;;3.40;;
6426;SDS011;3246;42.664;23.308;2023-12-07T09:51:10;3.67;;;3.37;;
6426;SDS011;3246;42.664;23.308;2023-12-07T09:53:39;3.53;;;3.23;;
6426;SDS011;3246;42.664;23.308;2023-12-07T09:56:08;3.30;;;3.00;;
6426;SDS011;3246;42.664;23.308;2023-12-07T09:58:36;3.13;;;2.83;;
6426;SDS011;3246;42.664;23.308;2023-12-07T10:01:03;2.50;;;2.30;;
6426;SDS011;3246;42.664;23.308;2023-12-07T10:03:30;3.30;;;2.23;;
6426;SDS011;3246;42.664;23.308;2023-12-07T10:05:57;2.63;;;2.40;;
6426;SDS011;3246;42.664;23.308;2023-12-07T10:08:25;2.20;;;2.00;;
6426;SDS011;3246;42.664;23.308;2023-12-07T10:11:02;3.17;;;2.47;;
6426;SDS011;3246;42.664;23.308;2023-12-07T10:13:33;2.80;;;2.60;;
6426;SDS011;3246;42.664;23.308;2023-12-07T10:16:06;2.90;;;2.70;;
6426;SDS011;3246;42.664;23.308;2023-12-07T10:18:34;3.50;;;3.20;;
6426;SDS011;3246;42.664;23.308;2023-12-07T10:21:02;3.50;;;3.20;;
6426;SDS011;3246;42.664;23.308;2023-12-07T10:23:29;5.77;;;3.50;;
6426;SDS011;3246;42.664;23.308;2023-12-07T10:25:57;3.63;;;3.33;;
6426;SDS011;3246;42.664;23.308;2023-12-07T10:28:26;3.30;;;3.00;;
6426;SDS011;3246;42.664;23.308;2023-12-07T10:30:53;3.37;;;3.07;;
6426;SDS011;3246;42.664;23.308;2023-12-07T10:33:19;3.90;;;3.60;;
6426;SDS011;3246;42.664;23.308;2023-12-07T10:35:46;5.60;;;5.20;;
6426;SDS011;3246;42.664;23.308;2023-12-07T10:38:15;12.57;;;7.67;;
6426;SDS011;3246;42.664;23.308;2023-12-07T10:40:43;8.57;;;7.87;;
6426;SDS011;3246;42.664;23.308;2023-12-07T10:43:09;8.50;;;7.80;;
6426;SDS011;3246;42.664;23.308;2023-12-07T10:45:39;7.00;;;6.50;;
6426;SDS011;3246;42.664;23.308;2023-12-07T10:48:09;10.33;;;9.53;;
6426;SDS011;3246;42.664;23.308;2023-12-07T10:50:36;6.80;;;6.20;;
6426;SDS011;3246;42.664;23.308;2023-12-07T10:53:09;6.33;;;5.77;;
6426;SDS011;3246;42.664;23.308;2023-12-07T10:55:38;4.87;;;3.30;;
6426;SDS011;3246;42.664;23.308;2023-12-07T10:58:12;6.50;;;4.40;;
6426;SDS011;3246;42.664;23.308;2023-12-07T11:00:42;3.03;;;2.80;;
6426;SDS011;3246;42.664;23.308;2023-12-07T11:03:13;2.70;;;2.50;;
6426;SDS011;3246;42.664;23.308;2023-12-07T11:05:42;2.97;;;2.67;;
6426;SDS011;3246;42.664;23.308;2023-12-07T11:08:11;4.30;;;3.50;;
6426;SDS011;3246;42.664;23.308;2023-12-07T11:10:43;3.20;;;3.00;;
6426;SDS011;3246;42.664;23.308;2023-12-07T11:13:17;3.57;;;3.27;;
6426;SDS011;3246;42.664;23.308;2023-12-07T11:15:50;2.67;;;2.47;;
6426;SDS011;3246;42.664;23.308;2023-12-07T11:18:18;3.90;;;3.60;;
6426;SDS011;3246;42.664;23.308;2023-12-07T11:20:45;4.20;;;3.10;;
6426;SDS011;3246;42.664;23.308;2023-12-07T11:23:15;3.77;;;3.47;;
6426;SDS011;3246;42.664;23.308;2023-12-07T11:25:43;3.80;;;3.50;;
6426;SDS011;3246;42.664;23.308;2023-12-07T11:28:10;4.33;;;3.90;;
6426;SDS011;3246;42.664;23.308;2023-12-07T11:30:37;6.33;;;3.83;;
6426;SDS011;3246;42.664;23.308;2023-12-07T11:33:09;6.73;;;5.33;;
6426;SDS011;3246;42.664;23.308;2023-12-07T11:38:32;8.23;;;6.70;;
6426;SDS011;3246;42.664;23.308;2023-12-07T11:40:59;6.93;;;6.43;;
6426;SDS011;3246;42.664;23.308;2023-12-07T11:46:21;5.47;;;4.97;;
6426;SDS011;3246;42.664;23.308;2023-12-07T11:48:50;5.07;;;3.53;;
6426;SDS011;3246;42.664;23.308;2023-12-07T11:51:17;3.83;;;3.43;;
6426;SDS011;3246;42.664;23.308;2023-12-07T11:53:44;2.77;;;2.57;;
6426;SDS011;3246;42.664;23.308;2023-12-07T11:56:10;3.57;;;3.20;;
6426;SDS011;3246;42.664;23.308;2023-12-07T11:58:38;6.70;;;3.17;;
6426;SDS011;3246;42.664;23.308;2023-12-07T12:01:05;2.53;;;2.07;;
6426;SDS011;3246;42.664;23.308;2023-12-07T12:03:32;2.53;;;2.37;;
6426;SDS011;3246;42.664;23.308;2023-12-07T12:06:01;3.40;;;2.97;;
6426;SDS011;3246;42.664;23.308;2023-12-07T12:08:29;5.83;;;2.93;;
6426;SDS011;3246;42.664;23.308;2023-12-07T12:10:57;3.23;;;2.57;;
6426;SDS011;3246;42.664;23.308;2023-12-07T12:13:25;3.53;;;2.40;;
6426;SDS011;3246;42.664;23.308;2023-12-07T12:15:54;3.20;;;2.90;;
6426;SDS011;3246;42.664;23.308;2023-12-07T12:18:21;2.40;;;2.20;;
6426;SDS011;3246;42.664;23.308;2023-12-07T12:20:50;2.87;;;2.63;;
6426;SDS011;3246;42.664;23.308;2023-12-07T12:23:18;2.73;;;2.53;;
6426;SDS011;3246;42.664;23.308;2023-12-07T12:25:46;4.27;;;2.73;;
6426;SDS011;3246;42.664;23.308;2023-12-07T12:28:14;3.90;;;3.60;;
6426;SDS011;3246;42.664;23.308;2023-12-07T12:30:43;3.80;;;3.40;;
6426;SDS011;3246;42.664;23.308;2023-12-07T12:33:10;4.93;;;4.43;;
6426;SDS011;3246;42.664;23.308;2023-12-07T12:35:39;4.90;;;4.50;;
6426;SDS011;3246;42.664;23.308;2023-12-07T12:38:08;4.67;;;4.00;;
6426;SDS011;3246;42.664;23.308;2023-12-07T12:40:38;4.47;;;4.03;;
6426;SDS011;3246;42.664;23.308;2023-12-07T12:43:06;4.97;;;4.53;;
6426;SDS011;3246;42.664;23.308;2023-12-07T12:45:33;5.97;;;4.70;;
6426;SDS011;3246;42.664;23.308;2023-12-07T12:48:00;4.47;;;3.77;;
6426;SDS011;3246;42.664;23.308;2023-12-07T12:50:33;5.30;;;4.20;;
6426;SDS011;3246;42.664;23.308;2023-12-07T12:53:02;4.63;;;4.23;;
6426;SDS011;3246;42.664;23.308;2023-12-07T12:55:31;6.57;;;5.57;;
6426;SDS011;3246;42.664;23.308;2023-12-07T12:58:00;5.47;;;4.83;;
6426;SDS011;3246;42.664;23.308;2023-12-07T13:00:29;5.30;;;4.10;;
6426;SDS011;3246;42.664;23.308;2023-12-07T13:02:56;6.03;;;4.83;;
6426;SDS011;3246;42.664;23.308;2023-12-07T13:05:23;5.30;;;4.40;;
6426;SDS011;3246;42.664;23.308;2023-12-07T13:07:49;5.67;;;5.13;;
6426;SDS011;3246;42.664;23.308;2023-12-07T13:10:16;5.07;;;4.67;;
6426;SDS011;3246;42.664;23.308;2023-12-07T13:12:43;3.30;;;3.10;;
6426;SDS011;3246;42.664;23.308;2023-12-07T13:15:11;6.70;;;4.53;;
6426;SDS011;3246;42.664;23.308;2023-12-07T13:17:38;5.27;;;4.87;;
6426;SDS011;3246;42.664;23.308;2023-12-07T13:20:06;5.90;;;5.30;;
6426;SDS011;3246;42.664;23.308;2023-12-07T13:22:35;10.17;;;8.33;;
6426;SDS011;3246;42.664;23.308;2023-12-07T13:25:02;9.33;;;8.60;;
6426;SDS011;3246;42.664;23.308;2023-12-07T13:27:30;8.23;;;7.53;;
6426;SDS011;3246;42.664;23.308;2023-12-07T13:29:58;6.83;;;6.20;;
6426;SDS011;3246;42.664;23.308;2023-12-07T13:32:26;5.60;;;5.10;;
6426;SDS011;3246;42.664;23.308;2023-12-07T13:34:53;6.70;;;6.10;;
6426;SDS011;3246;42.664;23.308;2023-12-07T13:37:20;7.07;;;6.27;;
6426;SDS011;3246;42.664;23.308;2023-12-07T13:39:47;9.23;;;5.57;;
6426;SDS011;3246;42.664;23.308;2023-12-07T13:42:18;8.00;;;6.67;;
6426;SDS011;3246;42.664;23.308;2023-12-07T13:44:45;8.10;;;6.20;;
6426;SDS011;3246;42.664;23.308;2023-12-07T13:47:12;5.40;;;4.87;;
6426;SDS011;3246;42.664;23.308;2023-12-07T13:49:41;9.47;;;6.87;;
6426;SDS011;3246;42.664;23.308;2023-12-07T13:52:07;8.40;;;7.60;;
6426;SDS011;3246;42.664;23.308;2023-12-07T13:54:34;10.13;;;9.13;;
6426;SDS011;3246;42.664;23.308;2023-12-07T13:57:01;9.07;;;7.97;;
6426;SDS011;3246;42.664;23.308;2023-12-07T13:59:29;10.37;;;9.47;;
6426;SDS011;3246;42.664;23.308;2023-12-07T14:01:56;8.97;;;7.27;;
6426;SDS011;3246;42.664;23.308;2023-12-07T14:04:23;8.87;;;8.00;;
6426;SDS011;3246;42.664;23.308;2023-12-07T14:06:51;7.77;;;6.97;;
6426;SDS011;3246;42.664;23.308;2023-12-07T14:09:17;8.50;;;7.40;;
6426;SDS011;3246;42.664;23.308;2023-12-07T14:11:44;10.37;;;9.30;;
6426;SDS011;3246;42.664;23.308;2023-12-07T14:14:11;13.30;;;9.07;;
6426;SDS011;3246;42.664;23.308;2023-12-07T14:16:38;9.97;;;8.97;;
6426;SDS011;3246;42.664;23.308;2023-12-07T14:19:06;10.70;;;9.60;;
6426;SDS011;3246;42.664;23.308;2023-12-07T14:21:32;10.23;;;8.20;;
6426;SDS011;3246;42.664;23.308;2023-12-07T14:24:00;9.60;;;8.37;;
6426;SDS011;3246;42.664;23.308;2023-12-07T14:26:29;10.27;;;9.27;;
6426;SDS011;3246;42.664;23.308;2023-12-07T14:28:55;10.33;;;8.40;;
6426;SDS011;3246;42.664;23.308;2023-12-07T14:31:22;8.77;;;7.73;;
6426;SDS011;3246;42.664;23.308;2023-12-07T14:33:49;8.37;;;7.47;;
6426;SDS011;3246;42.664;23.308;2023-12-07T14:36:16;6.50;;;5.90;;
6426;SDS011;3246;42.664;23.308;2023-12-07T14:38:43;7.90;;;7.13;;
6426;SDS011;3246;42.664;23.308;2023-12-07T14:41:11;10.53;;;8.47;;
6426;SDS011;3246;42.664;23.308;2023-12-07T14:43:38;12.10;;;8.50;;
6426;SDS011;3246;42.664;23.308;2023-12-07T14:46:05;12.87;;;9.40;;
6426;SDS011;3246;42.664;23.308;2023-12-07T14:48:33;8.30;;;7.60;;
6426;SDS011;3246;42.664;23.308;2023-12-07T14:51:00;9.17;;;8.23;;
6426;SDS011;3246;42.664;23.308;2023-12-07T14:53:26;8.90;;;8.10;;
6426;SDS011;3246;42.664;23.308;2023-12-07T14:55:53;9.90;;;9.00;;